createdAt,value
2018-03-08T00:00:00.874Z,89.90
2018-03-08T00:02:31.339Z,92.97
2018-03-08T00:04:58.949Z,88.80
2018-03-08T00:07:26.822Z,85.73
2018-03-08T00:09:54.503Z,100.23
2018-03-08T00:12:22.903Z,97.07
2018-03-08T00:14:50.600Z,101.57
2018-03-08T00:17:18.505Z,93.80
2018-03-08T00:19:46.102Z,92.83
2018-03-08T00:22:13.751Z,83.90
2018-03-08T00:24:41.373Z,93.90
2018-03-08T00:27:09.018Z,95.30
2018-03-08T00:29:36.642Z,89.83
2018-03-08T00:32:04.289Z,88.27
2018-03-08T00:34:32.716Z,87.90
2018-03-08T00:37:00.319Z,103.67
2018-03-08T00:39:28.746Z,100.33
2018-03-08T00:41:56.341Z,98.40
2018-03-08T00:44:23.927Z,95.93
2018-03-08T00:46:53.094Z,92.60
2018-03-08T00:49:20.700Z,94.13
2018-03-08T00:51:48.316Z,94.07
2018-03-08T00:54:15.959Z,100.40
2018-03-08T00:56:43.562Z,99.57
2018-03-08T00:59:11.226Z,94.53
2018-03-08T01:01:38.852Z,97.37
2018-03-08T01:04:06.499Z,93.23
2018-03-08T01:06:36.136Z,94.27
2018-03-08T01:09:05.496Z,99.50
2018-03-08T01:11:34.054Z,93.67
2018-03-08T01:14:01.650Z,93.30
2018-03-08T01:16:29.279Z,99.93
2018-03-08T01:18:56.927Z,98.13
2018-03-08T01:21:24.592Z,100.70
2018-03-08T01:23:52.261Z,88.60
2018-03-08T01:26:19.865Z,90.27
2018-03-08T01:28:47.510Z,108.40
2018-03-08T01:31:15.216Z,106.43
2018-03-08T01:33:43.732Z,101.17
2018-03-08T01:36:23.823Z,97.97
2018-03-08T01:38:54.385Z,95.43
2018-03-08T01:41:22.871Z,99.73
2018-03-08T01:43:51.353Z,103.23
2018-03-08T01:46:20.512Z,108.97
2018-03-08T01:48:49.746Z,100.67
2018-03-08T01:51:20.287Z,111.23
2018-03-08T01:53:49.727Z,109.30
2018-03-08T01:56:19.031Z,86.33
2018-03-08T01:58:48.780Z,95.37
2018-03-08T02:01:17.237Z,91.20
2018-03-08T02:03:45.747Z,92.03
2018-03-08T02:06:15.079Z,95.83
2018-03-08T02:08:44.294Z,105.97
2018-03-08T02:11:13.474Z,105.57
2018-03-08T02:13:43.667Z,107.33
2018-03-08T02:16:13.311Z,103.33
2018-03-08T02:18:43.124Z,109.37
2018-03-08T02:21:10.835Z,113.77
2018-03-08T02:23:40.669Z,99.60
2018-03-08T02:26:10.732Z,108.20
2018-03-08T02:28:40.447Z,91.07
2018-03-08T02:31:10.205Z,115.93
2018-03-08T02:33:39.565Z,103.57
2018-03-08T02:36:09.873Z,109.23
2018-03-08T02:38:38.858Z,106.20
2018-03-08T02:41:08.192Z,102.60
2018-03-08T02:43:37.112Z,109.90
2018-03-08T02:46:06.636Z,102.10
2018-03-08T02:48:36.130Z,104.80
2018-03-08T02:51:05.544Z,107.20
2018-03-08T02:53:34.667Z,101.67
2018-03-08T02:56:03.476Z,101.77
2018-03-08T02:58:33.576Z,89.70
2018-03-08T03:01:02.983Z,100.87
2018-03-08T03:03:32.751Z,99.37
2018-03-08T03:06:01.993Z,109.10
2018-03-08T03:08:32.115Z,107.43
2018-03-08T03:11:02.070Z,99.53
2018-03-08T03:13:32.729Z,106.77
2018-03-08T03:16:03.495Z,111.77
2018-03-08T03:18:33.612Z,93.37
2018-03-08T03:21:03.062Z,100.90
2018-03-08T03:23:32.037Z,100.13
2018-03-08T03:26:01.277Z,96.40
2018-03-08T03:28:30.471Z,108.17
2018-03-08T03:30:59.816Z,96.17
2018-03-08T03:33:29.133Z,98.53
2018-03-08T03:35:58.906Z,94.70
2018-03-08T03:38:30.043Z,93.63
2018-03-08T03:41:00.085Z,91.87
2018-03-08T03:43:29.620Z,102.03
2018-03-08T03:45:59.064Z,100.43
2018-03-08T03:48:29.411Z,98.20
2018-03-08T03:50:58.809Z,97.60
2018-03-08T03:53:28.229Z,99.27
2018-03-08T03:55:57.570Z,82.33
2018-03-08T03:58:26.967Z,91.13
2018-03-08T04:00:56.940Z,89.30
2018-03-08T04:03:25.999Z,99.87
2018-03-08T04:05:55.421Z,97.97
2018-03-08T04:08:25.671Z,99.53
2018-03-08T04:10:56.397Z,96.10
2018-03-08T04:13:24.922Z,93.43
2018-03-08T04:15:54.228Z,93.03
2018-03-08T04:18:23.305Z,86.63
2018-03-08T04:20:52.726Z,91.60
2018-03-08T04:23:22.120Z,94.90
2018-03-08T04:25:50.655Z,92.20
2018-03-08T04:28:20.438Z,87.23
2018-03-08T04:30:49.243Z,92.50
2018-03-08T04:33:18.832Z,88.40
2018-03-08T04:35:48.568Z,95.33
2018-03-08T04:38:18.683Z,96.97
2018-03-08T04:40:54.298Z,98.57
2018-03-08T04:43:23.370Z,83.83
2018-03-08T04:45:53.516Z,97.90
2018-03-08T04:48:24.634Z,99.20
2018-03-08T04:50:53.896Z,95.00
2018-03-08T04:53:23.077Z,98.87
2018-03-08T04:55:52.169Z,98.67
2018-03-08T04:58:21.686Z,93.47
2018-03-08T05:00:50.960Z,108.43
2018-03-08T05:03:20.127Z,107.93
2018-03-08T05:05:49.631Z,92.13
2018-03-08T05:08:19.025Z,94.17
2018-03-08T05:10:49.916Z,88.87
2018-03-08T05:13:19.444Z,96.03
2018-03-08T05:15:48.659Z,96.83
2018-03-08T05:18:18.177Z,86.10
2018-03-08T05:20:48.350Z,84.73
2018-03-08T05:23:18.537Z,99.10
2018-03-08T05:25:46.255Z,94.60
2018-03-08T05:28:17.212Z,79.67
2018-03-08T05:30:47.227Z,88.23
2018-03-08T05:33:16.242Z,90.43
2018-03-08T05:35:46.792Z,95.63
2018-03-08T05:38:18.552Z,90.03
2018-03-08T05:40:48.799Z,79.47
2018-03-08T05:43:16.567Z,78.03
2018-03-08T05:45:45.874Z,73.20
2018-03-08T05:48:16.149Z,84.27
2018-03-08T05:50:46.840Z,61.60
2018-03-08T05:53:16.754Z,72.73
2018-03-08T05:55:48.571Z,73.17
2018-03-08T05:58:18.121Z,78.83
2018-03-08T06:00:48.723Z,76.60
2018-03-08T06:03:18.204Z,74.30
2018-03-08T06:05:47.518Z,77.03
2018-03-08T06:08:15.971Z,76.53
2018-03-08T06:10:45.056Z,75.07
2018-03-08T06:13:13.990Z,71.27
2018-03-08T06:15:44.671Z,75.77
2018-03-08T06:18:12.663Z,76.57
2018-03-08T06:20:43.493Z,73.67
2018-03-08T06:23:12.474Z,71.47
2018-03-08T06:25:42.566Z,70.93
2018-03-08T06:28:10.258Z,66.00
2018-03-08T06:30:38.604Z,64.20
2018-03-08T06:33:08.378Z,59.73
2018-03-08T06:35:38.971Z,55.67
2018-03-08T06:38:08.597Z,59.90
2018-03-08T06:40:36.518Z,59.10
2018-03-08T06:43:06.002Z,55.73
2018-03-08T06:45:33.919Z,49.03
2018-03-08T06:48:04.735Z,51.10
2018-03-08T06:50:32.850Z,44.37
2018-03-08T06:53:02.871Z,43.47
2018-03-08T06:55:31.101Z,42.63
2018-03-08T06:58:00.012Z,47.57
2018-03-08T07:00:29.701Z,44.93
2018-03-08T07:02:57.812Z,44.60
2018-03-08T07:05:28.088Z,40.03
2018-03-08T07:07:57.146Z,41.47
2018-03-08T07:10:27.124Z,44.90
2018-03-08T07:12:54.951Z,41.57
2018-03-08T07:15:22.726Z,43.73
2018-03-08T07:17:53.068Z,40.33
2018-03-08T07:20:23.278Z,35.57
2018-03-08T07:22:53.868Z,39.60
2018-03-08T07:25:24.030Z,38.73
2018-03-08T07:27:53.903Z,38.87
2018-03-08T07:30:22.854Z,40.60
2018-03-08T07:32:51.507Z,34.50
2018-03-08T07:35:21.236Z,34.37
2018-03-08T07:37:50.595Z,36.63
2018-03-08T07:40:18.270Z,34.47
2018-03-08T07:42:59.682Z,34.70
2018-03-08T07:45:29.733Z,35.27
2018-03-08T07:47:59.838Z,32.40
2018-03-08T07:50:30.283Z,34.07
2018-03-08T07:53:04.577Z,31.37
2018-03-08T07:55:33.487Z,30.30
2018-03-08T07:58:03.530Z,29.30
2018-03-08T08:00:32.783Z,32.90
2018-03-08T08:03:03.062Z,37.23
2018-03-08T08:08:48.184Z,37.40
2018-03-08T08:11:18.015Z,31.73
2018-03-08T08:13:52.456Z,31.47
2018-03-08T08:16:22.031Z,32.97
2018-03-08T08:18:52.969Z,31.20
2018-03-08T08:21:23.927Z,31.37
2018-03-08T08:23:53.764Z,26.70
2018-03-08T08:26:24.123Z,26.90
2018-03-08T08:28:52.690Z,24.83
2018-03-08T08:31:22.206Z,27.30
2018-03-08T08:33:51.307Z,29.07
2018-03-08T08:36:21.790Z,26.13
2018-03-08T08:38:51.342Z,25.07
2018-03-08T08:41:20.441Z,23.40
2018-03-08T08:43:50.580Z,27.37
2018-03-08T08:46:18.342Z,25.47
2018-03-08T08:48:48.264Z,25.83
2018-03-08T08:51:17.357Z,24.13
2018-03-08T08:53:46.477Z,23.50
2018-03-08T08:56:17.330Z,25.13
2018-03-08T08:58:47.217Z,23.80
2018-03-08T09:01:16.650Z,23.93
2018-03-08T09:03:45.858Z,21.50
2018-03-08T09:06:15.362Z,26.50
2018-03-08T09:08:46.181Z,22.60
2018-03-08T09:11:15.649Z,18.57
2018-03-08T09:13:44.571Z,20.90
2018-03-08T09:16:14.459Z,20.63
2018-03-08T09:18:43.166Z,20.70
2018-03-08T09:21:12.949Z,21.03
2018-03-08T09:23:42.448Z,21.00
2018-03-08T09:26:13.320Z,19.13
2018-03-08T09:28:42.628Z,23.57
2018-03-08T09:31:14.298Z,22.80
2018-03-08T09:33:43.508Z,17.47
2018-03-08T09:36:11.160Z,26.07
2018-03-08T09:38:42.491Z,15.37
2018-03-08T09:41:12.054Z,17.87
2018-03-08T09:43:41.592Z,15.83
2018-03-08T09:46:10.999Z,15.13
2018-03-08T09:48:41.995Z,14.47
2018-03-08T09:51:13.221Z,16.40
2018-03-08T09:53:42.780Z,17.53
2018-03-08T09:56:12.712Z,17.77
2018-03-08T09:58:42.815Z,17.87
2018-03-08T10:01:12.237Z,19.30
2018-03-08T10:03:41.928Z,16.17
2018-03-08T10:06:11.845Z,20.63
2018-03-08T10:08:42.061Z,16.20
2018-03-08T10:11:12.814Z,15.43
2018-03-08T10:13:41.892Z,16.80
2018-03-08T10:16:12.084Z,17.20
2018-03-08T10:18:41.626Z,15.20
2018-03-08T10:21:11.345Z,16.00
2018-03-08T10:23:40.781Z,18.27
2018-03-08T10:26:10.147Z,17.03
2018-03-08T10:28:39.748Z,15.80
2018-03-08T10:31:11.011Z,20.13
2018-03-08T10:33:41.160Z,20.30
2018-03-08T10:36:10.971Z,22.17
2018-03-08T10:38:40.138Z,22.37
2018-03-08T10:41:10.163Z,23.37
2018-03-08T10:43:39.701Z,25.03
2018-03-08T10:46:09.200Z,22.53
2018-03-08T10:48:38.250Z,22.97
2018-03-08T10:51:08.437Z,22.30
2018-03-08T10:53:37.920Z,31.40
2018-03-08T10:56:08.092Z,26.33
2018-03-08T10:58:37.675Z,24.93
2018-03-08T11:01:06.953Z,25.63
2018-03-08T11:03:42.333Z,27.27
2018-03-08T11:06:17.526Z,26.43
2018-03-08T11:08:49.081Z,23.57
2018-03-08T11:11:19.485Z,28.50
2018-03-08T11:13:49.557Z,25.70
2018-03-08T11:16:17.456Z,26.83
2018-03-08T11:18:46.765Z,30.07
2018-03-08T11:21:16.523Z,26.80
2018-03-08T11:23:44.403Z,26.40
2018-03-08T11:26:12.577Z,29.93
2018-03-08T11:28:40.202Z,28.30
2018-03-08T11:31:09.420Z,28.60
2018-03-08T11:33:38.479Z,27.87
2018-03-08T11:36:06.244Z,27.50
2018-03-08T11:38:37.939Z,27.70
2018-03-08T11:41:07.518Z,29.17
2018-03-08T11:43:37.109Z,29.60
2018-03-08T11:46:06.647Z,29.53
2018-03-08T11:48:36.061Z,30.37
2018-03-08T11:51:05.538Z,26.87
2018-03-08T11:53:34.920Z,26.93
2018-03-08T11:56:08.463Z,25.97
2018-03-08T11:58:38.784Z,29.57
2018-03-08T12:01:08.369Z,26.00
2018-03-08T12:03:38.634Z,25.70
2018-03-08T12:06:07.657Z,24.97
2018-03-08T12:08:36.724Z,28.83
2018-03-08T12:11:06.604Z,26.30
2018-03-08T12:13:35.907Z,24.93
2018-03-08T12:16:04.965Z,27.10
2018-03-08T12:18:34.067Z,26.07
2018-03-08T12:21:03.830Z,25.80
2018-03-08T12:23:33.242Z,21.03
2018-03-08T12:26:03.686Z,23.27
2018-03-08T12:28:33.239Z,22.40
2018-03-08T12:31:02.525Z,23.27
2018-03-08T12:33:32.335Z,20.97
2018-03-08T12:36:01.772Z,22.63
2018-03-08T12:38:31.224Z,20.80
2018-03-08T12:41:00.770Z,22.63
2018-03-08T12:43:30.019Z,20.97
2018-03-08T12:46:00.974Z,21.00
2018-03-08T12:48:29.640Z,21.47
2018-03-08T12:50:59.125Z,21.87
2018-03-08T12:53:27.968Z,20.73
2018-03-08T12:55:57.422Z,18.73
2018-03-08T12:58:26.879Z,18.63
2018-03-08T13:00:56.183Z,19.93
2018-03-08T13:03:23.899Z,24.60
2018-03-08T13:05:53.974Z,18.60
2018-03-08T13:08:24.047Z,20.23
2018-03-08T13:10:53.608Z,19.67
2018-03-08T13:13:23.177Z,19.63
2018-03-08T13:15:53.015Z,16.33
2018-03-08T13:18:22.031Z,17.80
2018-03-08T13:20:51.668Z,17.07
2018-03-08T13:23:21.248Z,15.93
2018-03-08T13:25:50.744Z,16.40
2018-03-08T13:28:20.540Z,24.27
2018-03-08T13:30:50.444Z,15.60
2018-03-08T13:33:19.897Z,16.17
2018-03-08T13:35:49.666Z,15.30
2018-03-08T13:38:19.055Z,19.57
2018-03-08T13:40:48.681Z,13.80
2018-03-08T13:43:17.107Z,17.27
2018-03-08T13:45:46.303Z,17.23
2018-03-08T13:48:16.768Z,15.20
2018-03-08T13:50:44.772Z,19.13
2018-03-08T13:53:14.036Z,13.30
2018-03-08T13:55:42.828Z,12.97
2018-03-08T13:58:11.357Z,13.70
2018-03-08T14:00:40.213Z,13.37
2018-03-08T14:03:08.087Z,16.10
2018-03-08T14:05:37.641Z,14.60
2018-03-08T14:08:05.553Z,14.03
2018-03-08T14:10:35.622Z,13.53
2018-03-08T14:13:05.064Z,11.13
2018-03-08T14:15:34.508Z,11.00
2018-03-08T14:18:02.381Z,11.27
2018-03-08T14:20:31.321Z,13.00
2018-03-08T14:22:59.746Z,15.23
2018-03-08T14:25:28.232Z,11.93
2018-03-08T14:27:56.649Z,12.83
2018-03-08T14:30:24.287Z,11.63
2018-03-08T14:32:51.912Z,10.90
2018-03-08T14:35:20.288Z,10.93
2018-03-08T14:37:48.116Z,11.80
2018-03-08T14:40:15.729Z,11.70
2018-03-08T14:42:44.109Z,12.40
2018-03-08T14:45:12.515Z,20.80
2018-03-08T14:47:40.140Z,15.60
2018-03-08T14:50:08.534Z,13.30
2018-03-08T14:52:37.063Z,11.13
2018-03-08T14:55:04.832Z,14.00
2018-03-08T14:57:32.555Z,11.67
2018-03-08T15:00:00.166Z,11.70
2018-03-08T15:02:28.726Z,13.20
2018-03-08T15:04:56.976Z,13.10
2018-03-08T15:07:24.595Z,11.10
2018-03-08T15:09:52.222Z,8.13
2018-03-08T15:12:19.810Z,6.90
2018-03-08T15:14:47.472Z,9.27
2018-03-08T15:17:15.072Z,10.27
2018-03-08T15:19:43.416Z,6.13
2018-03-08T15:22:11.822Z,6.60
2018-03-08T15:24:39.448Z,7.70
2018-03-08T15:27:07.039Z,7.27
2018-03-08T15:29:34.757Z,5.97
2018-03-08T15:32:02.415Z,7.87
2018-03-08T15:34:30.005Z,6.43
2018-03-08T15:36:58.402Z,6.63
2018-03-08T15:39:26.045Z,7.07
2018-03-08T15:41:54.430Z,6.90
2018-03-08T15:44:22.859Z,5.77
2018-03-08T15:46:50.495Z,8.20
2018-03-08T15:49:18.155Z,9.07
2018-03-08T15:51:45.767Z,8.03
2018-03-08T15:54:14.107Z,8.47
2018-03-08T15:56:41.743Z,8.67
2018-03-08T15:59:10.037Z,7.70
2018-03-08T16:01:37.672Z,9.20
2018-03-08T16:04:05.323Z,8.90
2018-03-08T16:09:51.378Z,5.00
2018-03-08T16:12:18.971Z,8.37
2018-03-08T16:14:46.639Z,7.97
2018-03-08T16:17:14.354Z,6.83
2018-03-08T16:19:41.980Z,5.47
2018-03-08T16:22:10.397Z,6.53
2018-03-08T16:24:38.004Z,5.07
2018-03-08T16:27:06.405Z,8.63
2018-03-08T16:29:34.047Z,9.20
2018-03-08T16:32:02.403Z,7.10
2018-03-08T16:34:30.007Z,5.53
2018-03-08T16:36:57.647Z,5.90
2018-03-08T16:39:26.047Z,6.90
2018-03-08T16:41:53.648Z,7.57
2018-03-08T16:44:21.285Z,8.20
2018-03-08T16:46:48.907Z,5.53
2018-03-08T16:49:17.313Z,7.47
2018-03-08T16:51:45.496Z,9.23
2018-03-08T16:54:13.148Z,6.57
2018-03-08T16:56:41.745Z,6.20
2018-03-08T16:59:09.378Z,7.40
2018-03-08T17:01:37.063Z,11.27
2018-03-08T17:04:05.342Z,10.13
2018-03-08T17:06:33.584Z,6.87
2018-03-08T17:09:01.413Z,9.60
2018-03-08T17:11:29.073Z,8.50
2018-03-08T17:13:56.773Z,10.90
2018-03-08T17:16:24.462Z,8.40
2018-03-08T17:18:52.063Z,8.83
2018-03-08T17:21:20.440Z,6.47
2018-03-08T17:23:49.570Z,9.97
2018-03-08T17:26:17.374Z,8.57
2018-03-08T17:28:45.050Z,11.67
2018-03-08T17:31:12.709Z,9.23
2018-03-08T17:33:40.326Z,9.50
2018-03-08T17:36:07.916Z,9.43
2018-03-08T17:38:35.733Z,13.07
2018-03-08T17:41:04.526Z,7.63
2018-03-08T17:43:33.791Z,12.33
2018-03-08T17:46:01.398Z,11.67
2018-03-08T17:48:28.988Z,8.40
2018-03-08T17:50:56.730Z,11.83
2018-03-08T17:53:24.515Z,9.13
2018-03-08T17:55:52.268Z,11.77
2018-03-08T17:58:19.989Z,12.47
2018-03-08T18:00:47.788Z,10.53
2018-03-08T18:03:15.735Z,13.03
2018-03-08T18:05:43.482Z,8.87
2018-03-08T18:08:11.218Z,17.40
2018-03-08T18:10:38.954Z,23.20
2018-03-08T18:13:06.565Z,14.87
2018-03-08T18:15:35.259Z,15.63
2018-03-08T18:18:02.975Z,18.87
2018-03-08T18:20:30.567Z,20.80
2018-03-08T18:22:58.995Z,27.13
2018-03-08T18:25:26.582Z,22.23
2018-03-08T18:27:54.164Z,19.50
2018-03-08T18:30:22.562Z,18.23
2018-03-08T18:32:50.200Z,17.90
2018-03-08T18:35:18.593Z,14.07
2018-03-08T18:37:46.955Z,16.60
2018-03-08T18:40:15.343Z,10.50
2018-03-08T18:42:43.734Z,9.43
2018-03-08T18:45:11.338Z,9.33
2018-03-08T18:47:38.959Z,7.00
2018-03-08T18:50:07.744Z,7.50
2018-03-08T18:52:35.416Z,6.50
2018-03-08T18:55:03.041Z,7.33
2018-03-08T18:57:31.399Z,7.87
2018-03-08T18:59:59.054Z,8.50
2018-03-08T19:02:26.636Z,11.40
2018-03-08T19:04:55.061Z,8.53
2018-03-08T19:07:22.662Z,11.43
2018-03-08T19:09:51.725Z,11.00
2018-03-08T19:12:19.920Z,10.07
2018-03-08T19:14:47.632Z,9.23
2018-03-08T19:17:15.274Z,10.80
2018-03-08T19:19:43.648Z,8.37
2018-03-08T19:22:12.003Z,9.30
2018-03-08T19:24:39.622Z,8.03
2018-03-08T19:27:07.263Z,9.80
2018-03-08T19:29:34.842Z,7.20
2018-03-08T19:32:02.450Z,8.43
2018-03-08T19:34:30.110Z,7.97
2018-03-08T19:36:57.706Z,8.37
2018-03-08T19:39:25.360Z,8.27
2018-03-08T19:41:53.732Z,7.67
2018-03-08T19:44:22.157Z,8.27
2018-03-08T19:46:49.748Z,6.93
2018-03-08T19:49:17.369Z,7.17
2018-03-08T19:51:44.984Z,11.37
2018-03-08T19:54:13.387Z,8.73
2018-03-08T19:56:41.253Z,5.27
2018-03-08T19:59:08.841Z,6.20
2018-03-08T20:01:36.523Z,9.20
2018-03-08T20:04:04.928Z,7.60
2018-03-08T20:06:33.366Z,7.10
2018-03-08T20:09:00.951Z,6.43
2018-03-08T20:11:28.571Z,7.80
2018-03-08T20:13:56.186Z,7.30
2018-03-08T20:16:24.535Z,8.00
2018-03-08T20:18:52.180Z,7.97
2018-03-08T20:21:19.792Z,7.60
2018-03-08T20:23:48.175Z,11.27
2018-03-08T20:26:15.793Z,10.17
2018-03-08T20:28:43.390Z,5.70
2018-03-08T20:31:11.779Z,9.03
2018-03-08T20:33:39.366Z,9.83
2018-03-08T20:36:07.238Z,5.37
2018-03-08T20:38:34.908Z,7.97
2018-03-08T20:41:02.570Z,5.37
2018-03-08T20:43:31.063Z,7.07
2018-03-08T20:45:58.726Z,6.87
2018-03-08T20:48:26.332Z,5.57
2018-03-08T20:53:28.024Z,6.70
2018-03-08T20:55:55.618Z,7.30
2018-03-08T20:58:23.224Z,7.90
2018-03-08T21:00:50.923Z,4.77
2018-03-08T21:03:18.571Z,5.60
2018-03-08T21:05:46.339Z,4.27
2018-03-08T21:08:14.185Z,5.17
2018-03-08T21:10:41.862Z,5.53
2018-03-08T21:13:09.537Z,4.50
2018-03-08T21:15:38.838Z,8.03
2018-03-08T21:18:07.032Z,6.70
2018-03-08T21:20:34.667Z,6.03
2018-03-08T21:23:02.299Z,6.37
2018-03-08T21:25:29.890Z,6.03
2018-03-08T21:27:57.723Z,6.17
2018-03-08T21:30:25.319Z,6.07
2018-03-08T21:32:52.953Z,5.10
2018-03-08T21:35:20.559Z,7.90
2018-03-08T21:37:48.182Z,8.00
2018-03-08T21:40:15.779Z,6.40
2018-03-08T21:42:44.171Z,4.70
2018-03-08T21:45:12.534Z,7.30
2018-03-08T21:47:40.190Z,6.03
2018-03-08T21:50:07.822Z,8.03
2018-03-08T21:52:35.419Z,5.63
2018-03-08T21:55:03.779Z,5.87
2018-03-08T21:57:31.403Z,8.03
2018-03-08T21:59:59.036Z,8.77
2018-03-08T22:02:27.422Z,6.13
2018-03-08T22:04:55.078Z,8.33
2018-03-08T22:07:22.710Z,6.33
2018-03-08T22:09:51.162Z,6.23
2018-03-08T22:12:18.772Z,10.03
2018-03-08T22:14:47.174Z,8.30
2018-03-08T22:17:14.790Z,8.90
2018-03-08T22:19:43.143Z,8.37
2018-03-08T22:22:10.772Z,7.00
2018-03-08T22:24:38.371Z,5.77
2018-03-08T22:27:06.026Z,7.67
2018-03-08T22:29:33.618Z,7.87
2018-03-08T22:32:02.001Z,11.23
2018-03-08T22:34:30.622Z,8.10
2018-03-08T22:36:58.253Z,7.50
2018-03-08T22:39:25.855Z,8.13
2018-03-08T22:41:54.330Z,8.80
2018-03-08T22:44:21.954Z,8.63
2018-03-08T22:46:49.639Z,8.07
2018-03-08T22:49:18.222Z,8.07
2018-03-08T22:51:46.023Z,6.97
2018-03-08T22:54:13.617Z,8.30
2018-03-08T22:56:42.008Z,7.97
2018-03-08T22:59:09.590Z,8.07
2018-03-08T23:04:53.999Z,7.83
2018-03-08T23:07:22.253Z,5.73
2018-03-08T23:09:49.843Z,5.77
2018-03-08T23:12:17.471Z,6.57
2018-03-08T23:14:45.059Z,3.33
2018-03-08T23:17:12.678Z,4.20
2018-03-08T23:19:40.419Z,3.23
2018-03-08T23:22:08.004Z,3.67
2018-03-08T23:24:35.642Z,3.47
2018-03-08T23:27:03.221Z,6.17
2018-03-08T23:29:30.806Z,3.83
2018-03-08T23:31:58.466Z,4.77
2018-03-08T23:34:26.059Z,3.77
2018-03-08T23:36:53.696Z,5.77
2018-03-08T23:39:22.862Z,7.73
2018-03-08T23:41:50.467Z,6.53
2018-03-08T23:44:18.834Z,5.67
2018-03-08T23:46:47.275Z,6.40
2018-03-08T23:49:14.891Z,7.43
2018-03-08T23:51:44.340Z,8.23
2018-03-08T23:54:11.961Z,8.80
2018-03-08T23:56:39.636Z,8.63
2018-03-08T23:59:07.304Z,7.00
